San Marcos Municipal Airport
KHYI : now visible

Airfield :











YOU CAN JOIN US ON...

 
LOGIN :

Register | Disclaimer

   EN    FR    IT 

 









Legend :    VFR   Marginal VFR   IFR   Intensive IFR   Very Intensive IFR
Visi :
Ceiling :
>= 8 km
>= 3000ft
5 to 8 km
1000 to 3000 ft
1500m to 5 km
500 to 1000 ft
800 to 1500m
200 to 500 ft
< 800m
< 200 ft
Symbols :   Thunderstorms  Fog  Heavy snow  Heavy precipitations  Wind > 20 kt






- Airport Elevation : 597 ft


KHYI - San Marcos Municipal

CURRENT METAR :
  • 290056Z AUTO 01009KT 10SM OVC110 23/06 A3013 RMK AO2 SLP196 T02280056

EXPIRED METARs :
  • 282356Z AUTO 02013G20KT 10SM OVC110 24/06 A3010 RMK AO2 SLP186 T02390056 10272 20239 53011
  • 282256Z 02014KT 10SM OVC110 25/05 A3008 RMK AO2 SLP179 T02500050
  • 282156Z 01019KT 10SM BKN095 26/06 A3007 RMK AO2 SLP175 T02610056

TAF N/A
KZHU FIR / North America



MET'MAP, your aeronautical weather chart ! - Copyright ORBIFLY December 2007 - Disclaimer

ORBIFLY MET'MAP TEAM :

Programming & Development : Alexandra Zaïnal
Concept & original design : Baudouin d'Aumeries
Assistance for programming : Marc-Olivier Méhu
Technical & hardware support : Manuel Goepfert

Contact : metmap@orbifly.com




SOURCES & CREDITS :

   NOAA       Earth
Advisory